sensor_id;sensor_type;location;lat;lon;timestamp;pressure;altitude;pressure_sealevel;temperature;humidity
76660;BME280;65579;45.534;6.212;2022-12-11T00:00:40;97362.32;;;5.17;51.17
76660;BME280;65579;45.534;6.212;2022-12-11T00:03:05;97361.26;;;4.81;51.93
76660;BME280;65579;45.534;6.212;2022-12-11T00:05:30;97354.74;;;4.41;49.92
76660;BME280;65579;45.534;6.212;2022-12-11T00:07:55;97356.21;;;3.98;52.53
76660;BME280;65579;45.534;6.212;2022-12-11T00:10:21;97362.75;;;3.84;53.21
76660;BME280;65579;45.534;6.212;2022-12-11T00:12:46;97362.18;;;4.34;50.40
76660;BME280;65579;45.534;6.212;2022-12-11T00:15:11;97365.49;;;4.23;49.02
76660;BME280;65579;45.534;6.212;2022-12-11T00:17:37;97362.27;;;5.09;48.71
76660;BME280;65579;45.534;6.212;2022-12-11T00:20:03;97360.50;;;5.43;48.37
76660;BME280;65579;45.534;6.212;2022-12-11T00:22:29;97360.96;;;5.07;48.52
76660;BME280;65579;45.534;6.212;2022-12-11T00:24:52;97361.78;;;4.12;51.15
76660;BME280;65579;45.534;6.212;2022-12-11T00:27:17;97361.89;;;4.14;52.76
76660;BME280;65579;45.534;6.212;2022-12-11T00:29:42;97355.24;;;4.44;51.17
76660;BME280;65579;45.534;6.212;2022-12-11T00:32:08;97349.99;;;4.70;50.42
76660;BME280;65579;45.534;6.212;2022-12-11T00:34:33;97348.77;;;4.73;49.32
76660;BME280;65579;45.534;6.212;2022-12-11T00:36:59;97349.99;;;4.50;51.85
76660;BME280;65579;45.534;6.212;2022-12-11T00:39:23;97347.20;;;4.94;52.74
76660;BME280;65579;45.534;6.212;2022-12-11T00:41:49;97349.94;;;4.88;51.91
76660;BME280;65579;45.534;6.212;2022-12-11T00:44:14;97352.50;;;5.30;51.01
76660;BME280;65579;45.534;6.212;2022-12-11T00:46:40;97357.91;;;4.81;52.05
76660;BME280;65579;45.534;6.212;2022-12-11T00:49:05;97361.77;;;4.65;52.15
76660;BME280;65579;45.534;6.212;2022-12-11T00:51:31;97369.71;;;4.83;52.68
76660;BME280;65579;45.534;6.212;2022-12-11T00:53:56;97372.19;;;4.96;49.06
76660;BME280;65579;45.534;6.212;2022-12-11T00:56:22;97378.00;;;4.69;51.34
76660;BME280;65579;45.534;6.212;2022-12-11T00:58:47;97378.37;;;4.59;51.06
76660;BME280;65579;45.534;6.212;2022-12-11T01:01:14;97375.86;;;4.96;52.91
76660;BME280;65579;45.534;6.212;2022-12-11T01:03:37;97381.54;;;4.52;51.36
76660;BME280;65579;45.534;6.212;2022-12-11T01:06:04;97384.14;;;4.49;49.76
76660;BME280;65579;45.534;6.212;2022-12-11T01:08:29;97388.30;;;5.09;50.32
76660;BME280;65579;45.534;6.212;2022-12-11T01:11:02;97388.76;;;4.70;51.16
76660;BME280;65579;45.534;6.212;2022-12-11T01:13:19;97387.83;;;4.34;51.25
76660;BME280;65579;45.534;6.212;2022-12-11T01:15:52;97384.31;;;4.84;51.82
76660;BME280;65579;45.534;6.212;2022-12-11T01:18:14;97384.92;;;4.82;50.59
76660;BME280;65579;45.534;6.212;2022-12-11T01:20:40;97381.16;;;4.60;49.75
76660;BME280;65579;45.534;6.212;2022-12-11T01:23:04;97368.42;;;5.52;48.19
76660;BME280;65579;45.534;6.212;2022-12-11T01:25:29;97373.24;;;6.09;47.03
76660;BME280;65579;45.534;6.212;2022-12-11T01:27:55;97379.45;;;5.94;51.98
76660;BME280;65579;45.534;6.212;2022-12-11T01:30:22;97382.01;;;7.26;50.24
76660;BME280;65579;45.534;6.212;2022-12-11T01:32:43;97389.56;;;8.06;47.27
76660;BME280;65579;45.534;6.212;2022-12-11T01:35:09;97393.57;;;8.67;45.28
76660;BME280;65579;45.534;6.212;2022-12-11T01:37:34;97392.86;;;8.28;43.96
76660;BME280;65579;45.534;6.212;2022-12-11T01:40:00;97390.23;;;7.81;47.24
76660;BME280;65579;45.534;6.212;2022-12-11T01:42:25;97396.03;;;6.89;46.87
76660;BME280;65579;45.534;6.212;2022-12-11T01:47:15;97394.92;;;6.89;46.89
76660;BME280;65579;45.534;6.212;2022-12-11T01:49:41;97391.60;;;7.49;50.81
76660;BME280;65579;45.534;6.212;2022-12-11T01:52:08;97391.19;;;7.72;48.31
76660;BME280;65579;45.534;6.212;2022-12-11T01:54:31;97394.75;;;7.86;48.02
76660;BME280;65579;45.534;6.212;2022-12-11T01:57:00;97398.01;;;6.63;48.86
76660;BME280;65579;45.534;6.212;2022-12-11T01:59:24;97400.58;;;6.88;48.96
76660;BME280;65579;45.534;6.212;2022-12-11T02:01:52;97398.20;;;5.81;50.23
76660;BME280;65579;45.534;6.212;2022-12-11T02:04:13;97400.53;;;6.51;51.06
76660;BME280;65579;45.534;6.212;2022-12-11T02:06:40;97401.10;;;7.08;48.51
76660;BME280;65579;45.534;6.212;2022-12-11T02:09:05;97404.28;;;8.06;46.00
76660;BME280;65579;45.534;6.212;2022-12-11T02:11:38;97410.52;;;8.58;48.53
76660;BME280;65579;45.534;6.212;2022-12-11T02:14:01;97414.16;;;9.09;47.20
76660;BME280;65579;45.534;6.212;2022-12-11T02:16:27;97410.47;;;8.62;45.22
76660;BME280;65579;45.534;6.212;2022-12-11T02:18:50;97403.61;;;8.88;43.06
76660;BME280;65579;45.534;6.212;2022-12-11T02:21:16;97409.74;;;8.24;41.39
76660;BME280;65579;45.534;6.212;2022-12-11T02:23:52;97412.99;;;6.48;45.38
76660;BME280;65579;45.534;6.212;2022-12-11T02:26:13;97421.87;;;6.94;45.71
76660;BME280;65579;45.534;6.212;2022-12-11T02:28:30;97422.54;;;6.61;45.66
76660;BME280;65579;45.534;6.212;2022-12-11T02:30:56;97409.67;;;7.67;45.97
76660;BME280;65579;45.534;6.212;2022-12-11T02:33:22;97411.08;;;7.25;49.02
76660;BME280;65579;45.534;6.212;2022-12-11T02:35:45;97420.49;;;6.31;45.99
76660;BME280;65579;45.534;6.212;2022-12-11T02:38:14;97420.15;;;6.33;47.76
76660;BME280;65579;45.534;6.212;2022-12-11T02:40:36;97411.51;;;6.91;50.05
76660;BME280;65579;45.534;6.212;2022-12-11T02:43:03;97412.45;;;6.44;44.04
76660;BME280;65579;45.534;6.212;2022-12-11T02:45:25;97417.41;;;5.80;46.40
76660;BME280;65579;45.534;6.212;2022-12-11T02:47:51;97423.85;;;6.03;48.06
76660;BME280;65579;45.534;6.212;2022-12-11T02:50:19;97421.90;;;7.43;51.29
76660;BME280;65579;45.534;6.212;2022-12-11T02:52:41;97421.82;;;6.48;43.67
76660;BME280;65579;45.534;6.212;2022-12-11T02:55:08;97415.35;;;5.31;49.55
76660;BME280;65579;45.534;6.212;2022-12-11T02:57:36;97420.17;;;4.62;51.09
76660;BME280;65579;45.534;6.212;2022-12-11T02:59:58;97423.23;;;3.95;54.28
76660;BME280;65579;45.534;6.212;2022-12-11T03:02:23;97417.87;;;5.31;50.70
76660;BME280;65579;45.534;6.212;2022-12-11T03:04:49;97423.35;;;6.40;54.27
76660;BME280;65579;45.534;6.212;2022-12-11T03:07:18;97418.86;;;7.02;48.88
76660;BME280;65579;45.534;6.212;2022-12-11T03:09:39;97420.36;;;8.10;47.82
76660;BME280;65579;45.534;6.212;2022-12-11T03:12:05;97414.70;;;8.27;49.62
76660;BME280;65579;45.534;6.212;2022-12-11T03:14:30;97419.29;;;8.39;47.83
76660;BME280;65579;45.534;6.212;2022-12-11T03:16:59;97415.83;;;8.82;47.39
76660;BME280;65579;45.534;6.212;2022-12-11T03:19:26;97409.89;;;9.29;48.44
76660;BME280;65579;45.534;6.212;2022-12-11T03:21:51;97415.22;;;9.44;48.73
76660;BME280;65579;45.534;6.212;2022-12-11T03:24:17;97416.04;;;8.90;45.74
76660;BME280;65579;45.534;6.212;2022-12-11T03:26:41;97416.61;;;8.80;47.70
76660;BME280;65579;45.534;6.212;2022-12-11T03:29:05;97414.95;;;8.51;41.85
76660;BME280;65579;45.534;6.212;2022-12-11T03:31:30;97413.30;;;8.74;43.36
76660;BME280;65579;45.534;6.212;2022-12-11T03:33:57;97415.00;;;7.59;41.48
76660;BME280;65579;45.534;6.212;2022-12-11T03:36:21;97413.22;;;7.79;44.85
76660;BME280;65579;45.534;6.212;2022-12-11T03:38:48;97412.74;;;8.69;44.15
76660;BME280;65579;45.534;6.212;2022-12-11T03:41:09;97411.82;;;8.29;45.02
76660;BME280;65579;45.534;6.212;2022-12-11T03:43:34;97411.86;;;8.36;45.00
76660;BME280;65579;45.534;6.212;2022-12-11T03:46:00;97411.46;;;7.65;42.08
76660;BME280;65579;45.534;6.212;2022-12-11T03:48:29;97412.49;;;6.38;45.50
76660;BME280;65579;45.534;6.212;2022-12-11T03:50:50;97409.14;;;5.77;47.61
76660;BME280;65579;45.534;6.212;2022-12-11T03:53:16;97418.17;;;4.90;47.02
76660;BME280;65579;45.534;6.212;2022-12-11T03:55:41;97423.49;;;4.15;49.70
76660;BME280;65579;45.534;6.212;2022-12-11T03:58:06;97426.12;;;4.11;49.02
76660;BME280;65579;45.534;6.212;2022-12-11T04:00:31;97432.90;;;3.99;49.00
76660;BME280;65579;45.534;6.212;2022-12-11T04:02:57;97434.72;;;3.80;52.18
76660;BME280;65579;45.534;6.212;2022-12-11T04:05:23;97434.16;;;3.45;53.19
76660;BME280;65579;45.534;6.212;2022-12-11T04:07:48;97430.67;;;3.53;50.78
76660;BME280;65579;45.534;6.212;2022-12-11T04:10:13;97425.58;;;3.09;52.61
76660;BME280;65579;45.534;6.212;2022-12-11T04:12:39;97421.05;;;3.10;54.48
76660;BME280;65579;45.534;6.212;2022-12-11T04:15:05;97423.94;;;2.66;54.21
76660;BME280;65579;45.534;6.212;2022-12-11T04:17:30;97422.91;;;2.80;52.54
76660;BME280;65579;45.534;6.212;2022-12-11T04:19:55;97423.28;;;4.28;57.25
76660;BME280;65579;45.534;6.212;2022-12-11T04:22:21;97423.55;;;4.87;49.86
76660;BME280;65579;45.534;6.212;2022-12-11T04:24:47;97429.56;;;3.77;51.36
76660;BME280;65579;45.534;6.212;2022-12-11T04:27:12;97432.15;;;4.50;56.52
76660;BME280;65579;45.534;6.212;2022-12-11T04:29:37;97427.04;;;4.11;49.50
76660;BME280;65579;45.534;6.212;2022-12-11T04:32:03;97423.97;;;4.26;50.34
76660;BME280;65579;45.534;6.212;2022-12-11T04:34:29;97422.41;;;3.95;49.77
76660;BME280;65579;45.534;6.212;2022-12-11T04:36:54;97416.81;;;3.44;51.40
76660;BME280;65579;45.534;6.212;2022-12-11T04:39:20;97418.04;;;2.62;51.31
76660;BME280;65579;45.534;6.212;2022-12-11T04:41:45;97416.31;;;3.06;51.97
76660;BME280;65579;45.534;6.212;2022-12-11T04:44:11;97420.46;;;3.59;51.23
76660;BME280;65579;45.534;6.212;2022-12-11T04:46:37;97422.36;;;3.11;48.81
76660;BME280;65579;45.534;6.212;2022-12-11T04:49:03;97415.96;;;3.21;52.43
76660;BME280;65579;45.534;6.212;2022-12-11T04:51:28;97415.69;;;3.27;52.49
76660;BME280;65579;45.534;6.212;2022-12-11T04:53:54;97413.93;;;2.34;53.81
76660;BME280;65579;45.534;6.212;2022-12-11T04:56:21;97410.76;;;2.97;54.51
76660;BME280;65579;45.534;6.212;2022-12-11T04:58:46;97405.52;;;2.42;53.58
76660;BME280;65579;45.534;6.212;2022-12-11T05:01:12;97403.78;;;2.84;53.95
76660;BME280;65579;45.534;6.212;2022-12-11T05:03:36;97396.97;;;3.44;54.56
76660;BME280;65579;45.534;6.212;2022-12-11T05:06:02;97397.52;;;3.15;52.78
76660;BME280;65579;45.534;6.212;2022-12-11T05:08:28;97397.69;;;2.56;53.06
76660;BME280;65579;45.534;6.212;2022-12-11T05:10:57;97399.06;;;3.26;54.47
76660;BME280;65579;45.534;6.212;2022-12-11T05:13:18;97399.32;;;2.87;52.78
76660;BME280;65579;45.534;6.212;2022-12-11T05:15:44;97398.93;;;3.11;52.93
76660;BME280;65579;45.534;6.212;2022-12-11T05:18:09;97394.12;;;3.68;53.97
76660;BME280;65579;45.534;6.212;2022-12-11T05:20:34;97386.71;;;2.88;54.32
76660;BME280;65579;45.534;6.212;2022-12-11T05:23:00;97386.93;;;3.21;53.32
76660;BME280;65579;45.534;6.212;2022-12-11T05:25:26;97383.20;;;3.29;55.04
76660;BME280;65579;45.534;6.212;2022-12-11T05:27:51;97380.78;;;3.59;53.54
76660;BME280;65579;45.534;6.212;2022-12-11T05:30:16;97380.10;;;3.04;53.27
76660;BME280;65579;45.534;6.212;2022-12-11T05:32:41;97382.05;;;2.86;54.59
76660;BME280;65579;45.534;6.212;2022-12-11T05:35:07;97380.53;;;2.51;55.49
76660;BME280;65579;45.534;6.212;2022-12-11T05:37:32;97383.82;;;2.48;53.67
76660;BME280;65579;45.534;6.212;2022-12-11T05:39:57;97385.44;;;2.53;56.96
76660;BME280;65579;45.534;6.212;2022-12-11T05:42:23;97386.49;;;2.97;52.91
76660;BME280;65579;45.534;6.212;2022-12-11T05:44:49;97391.16;;;3.05;56.45
76660;BME280;65579;45.534;6.212;2022-12-11T05:47:14;97395.60;;;2.87;53.06
76660;BME280;65579;45.534;6.212;2022-12-11T05:49:40;97396.36;;;2.78;55.62
76660;BME280;65579;45.534;6.212;2022-12-11T05:52:05;97399.19;;;2.48;56.55
76660;BME280;65579;45.534;6.212;2022-12-11T05:54:31;97404.99;;;2.52;56.40
76660;BME280;65579;45.534;6.212;2022-12-11T05:56:57;97403.45;;;2.12;54.60
76660;BME280;65579;45.534;6.212;2022-12-11T05:59:22;97402.86;;;2.59;53.63
76660;BME280;65579;45.534;6.212;2022-12-11T06:01:48;97401.98;;;3.59;51.85
76660;BME280;65579;45.534;6.212;2022-12-11T06:04:13;97401.51;;;4.25;51.69
76660;BME280;65579;45.534;6.212;2022-12-11T06:06:39;97392.43;;;4.60;51.55
76660;BME280;65579;45.534;6.212;2022-12-11T06:09:05;97390.35;;;4.00;50.99
76660;BME280;65579;45.534;6.212;2022-12-11T06:11:32;97394.23;;;2.80;51.82
76660;BME280;65579;45.534;6.212;2022-12-11T06:13:56;97403.35;;;2.99;55.42
76660;BME280;65579;45.534;6.212;2022-12-11T06:16:21;97408.76;;;3.82;51.22
76660;BME280;65579;45.534;6.212;2022-12-11T06:18:47;97404.98;;;2.40;52.08
76660;BME280;65579;45.534;6.212;2022-12-11T06:21:13;97405.50;;;2.54;51.74
76660;BME280;65579;45.534;6.212;2022-12-11T06:23:37;97413.32;;;2.56;51.08
76660;BME280;65579;45.534;6.212;2022-12-11T06:26:03;97412.04;;;2.76;51.93
76660;BME280;65579;45.534;6.212;2022-12-11T06:28:28;97411.05;;;3.31;49.26
76660;BME280;65579;45.534;6.212;2022-12-11T06:30:57;97415.30;;;3.46;49.17
76660;BME280;65579;45.534;6.212;2022-12-11T06:33:20;97421.09;;;4.14;49.32
76660;BME280;65579;45.534;6.212;2022-12-11T06:35:46;97424.08;;;3.90;48.54
76660;BME280;65579;45.534;6.212;2022-12-11T06:38:11;97428.98;;;4.50;48.04
76660;BME280;65579;45.534;6.212;2022-12-11T06:40:37;97430.01;;;3.96;48.57
76660;BME280;65579;45.534;6.212;2022-12-11T06:43:03;97423.14;;;3.28;49.22
76660;BME280;65579;45.534;6.212;2022-12-11T06:45:28;97421.74;;;3.41;52.24
76660;BME280;65579;45.534;6.212;2022-12-11T06:47:54;97424.72;;;2.33;51.71
76660;BME280;65579;45.534;6.212;2022-12-11T06:50:19;97423.66;;;2.44;52.28
76660;BME280;65579;45.534;6.212;2022-12-11T06:52:44;97418.45;;;2.20;52.94
76660;BME280;65579;45.534;6.212;2022-12-11T06:55:10;97417.60;;;2.48;53.58
76660;BME280;65579;45.534;6.212;2022-12-11T06:57:36;97411.00;;;2.45;52.63
76660;BME280;65579;45.534;6.212;2022-12-11T07:00:01;97409.01;;;2.14;53.03
76660;BME280;65579;45.534;6.212;2022-12-11T07:02:26;97407.51;;;2.14;52.44
76660;BME280;65579;45.534;6.212;2022-12-11T07:04:51;97408.35;;;2.14;52.68
76660;BME280;65579;45.534;6.212;2022-12-11T07:07:17;97404.54;;;2.74;53.83
76660;BME280;65579;45.534;6.212;2022-12-11T07:09:43;97410.53;;;3.56;55.36
76660;BME280;65579;45.534;6.212;2022-12-11T07:12:08;97413.47;;;2.95;53.84
76660;BME280;65579;45.534;6.212;2022-12-11T07:14:33;97412.50;;;2.35;54.14
76660;BME280;65579;45.534;6.212;2022-12-11T07:16:59;97415.04;;;2.41;55.18
76660;BME280;65579;45.534;6.212;2022-12-11T07:19:24;97414.16;;;2.92;57.58
76660;BME280;65579;45.534;6.212;2022-12-11T07:21:49;97414.32;;;1.77;56.76
76660;BME280;65579;45.534;6.212;2022-12-11T07:24:15;97407.88;;;2.03;56.86
76660;BME280;65579;45.534;6.212;2022-12-11T07:26:40;97397.86;;;1.52;56.13
76660;BME280;65579;45.534;6.212;2022-12-11T07:29:10;97394.93;;;1.49;56.41
76660;BME280;65579;45.534;6.212;2022-12-11T07:31:34;97392.01;;;2.27;54.99
76660;BME280;65579;45.534;6.212;2022-12-11T07:33:59;97395.89;;;2.52;53.95
76660;BME280;65579;45.534;6.212;2022-12-11T07:36:24;97399.26;;;2.53;52.78
76660;BME280;65579;45.534;6.212;2022-12-11T07:38:49;97401.18;;;1.18;54.22
76660;BME280;65579;45.534;6.212;2022-12-11T07:41:15;97407.92;;;0.84;55.96
76660;BME280;65579;45.534;6.212;2022-12-11T07:43:39;97410.02;;;1.19;56.47
76660;BME280;65579;45.534;6.212;2022-12-11T07:46:06;97417.02;;;1.26;56.89
76660;BME280;65579;45.534;6.212;2022-12-11T07:48:30;97415.97;;;1.29;56.36
76660;BME280;65579;45.534;6.212;2022-12-11T07:50:55;97419.54;;;1.57;55.02
76660;BME280;65579;45.534;6.212;2022-12-11T07:53:20;97418.27;;;1.69;56.21
76660;BME280;65579;45.534;6.212;2022-12-11T07:55:45;97415.47;;;1.88;55.40
76660;BME280;65579;45.534;6.212;2022-12-11T07:58:10;97413.02;;;1.36;56.27
76660;BME280;65579;45.534;6.212;2022-12-11T08:00:39;97408.92;;;1.96;57.12
76660;BME280;65579;45.534;6.212;2022-12-11T08:03:01;97406.58;;;1.63;59.44
76660;BME280;65579;45.534;6.212;2022-12-11T08:05:27;97407.81;;;1.52;58.96
76660;BME280;65579;45.534;6.212;2022-12-11T08:07:53;97414.08;;;1.70;59.88
76660;BME280;65579;45.534;6.212;2022-12-11T08:10:18;97411.20;;;1.17;59.92
76660;BME280;65579;45.534;6.212;2022-12-11T08:12:43;97412.78;;;1.23;58.67
76660;BME280;65579;45.534;6.212;2022-12-11T08:15:10;97421.61;;;1.61;58.88
76660;BME280;65579;45.534;6.212;2022-12-11T08:17:34;97421.38;;;2.38;57.67
76660;BME280;65579;45.534;6.212;2022-12-11T08:19:59;97427.54;;;2.16;58.80
76660;BME280;65579;45.534;6.212;2022-12-11T08:22:25;97430.70;;;1.47;57.48
76660;BME280;65579;45.534;6.212;2022-12-11T08:24:51;97435.24;;;2.00;58.48
76660;BME280;65579;45.534;6.212;2022-12-11T08:27:15;97436.69;;;1.66;56.78
76660;BME280;65579;45.534;6.212;2022-12-11T08:29:41;97444.94;;;1.67;56.82
76660;BME280;65579;45.534;6.212;2022-12-11T08:32:06;97447.02;;;1.59;56.94
76660;BME280;65579;45.534;6.212;2022-12-11T08:34:32;97446.69;;;1.96;56.18
76660;BME280;65579;45.534;6.212;2022-12-11T08:36:57;97453.45;;;2.12;54.24
76660;BME280;65579;45.534;6.212;2022-12-11T08:39:23;97448.74;;;2.74;54.56
76660;BME280;65579;45.534;6.212;2022-12-11T08:41:48;97447.10;;;2.50;55.24
76660;BME280;65579;45.534;6.212;2022-12-11T08:44:13;97449.15;;;1.94;55.89
76660;BME280;65579;45.534;6.212;2022-12-11T08:46:40;97444.84;;;2.02;56.07
76660;BME280;65579;45.534;6.212;2022-12-11T08:49:05;97443.36;;;1.99;56.86
76660;BME280;65579;45.534;6.212;2022-12-11T08:51:30;97448.26;;;1.95;54.99
76660;BME280;65579;45.534;6.212;2022-12-11T08:53:56;97450.55;;;1.98;55.43
76660;BME280;65579;45.534;6.212;2022-12-11T08:56:21;97452.41;;;2.36;55.50
76660;BME280;65579;45.534;6.212;2022-12-11T08:58:48;97455.03;;;2.14;55.26
76660;BME280;65579;45.534;6.212;2022-12-11T09:01:14;97457.58;;;2.13;54.36
76660;BME280;65579;45.534;6.212;2022-12-11T09:03:39;97462.65;;;1.87;54.71
76660;BME280;65579;45.534;6.212;2022-12-11T09:06:05;97465.08;;;2.80;53.22
76660;BME280;65579;45.534;6.212;2022-12-11T09:08:29;97465.03;;;1.97;54.56
76660;BME280;65579;45.534;6.212;2022-12-11T09:10:54;97472.35;;;1.82;55.65
76660;BME280;65579;45.534;6.212;2022-12-11T09:13:20;97476.73;;;1.43;56.70
76660;BME280;65579;45.534;6.212;2022-12-11T09:15:46;97476.80;;;1.80;56.27
76660;BME280;65579;45.534;6.212;2022-12-11T09:18:12;97479.35;;;1.33;54.60
76660;BME280;65579;45.534;6.212;2022-12-11T09:20:37;97479.05;;;1.71;56.00
76660;BME280;65579;45.534;6.212;2022-12-11T09:23:02;97478.71;;;2.44;55.32
76660;BME280;65579;45.534;6.212;2022-12-11T09:25:28;97479.62;;;2.26;55.02
76660;BME280;65579;45.534;6.212;2022-12-11T09:27:54;97476.15;;;2.26;55.77
76660;BME280;65579;45.534;6.212;2022-12-11T09:30:20;97470.03;;;1.94;54.91
76660;BME280;65579;45.534;6.212;2022-12-11T09:32:44;97467.27;;;2.07;54.32
76660;BME280;65579;45.534;6.212;2022-12-11T09:35:09;97470.05;;;1.72;54.41
76660;BME280;65579;45.534;6.212;2022-12-11T09:37:35;97467.81;;;1.77;54.26
76660;BME280;65579;45.534;6.212;2022-12-11T09:40:01;97463.41;;;1.85;54.12
76660;BME280;65579;45.534;6.212;2022-12-11T09:42:30;97464.72;;;2.38;53.18
76660;BME280;65579;45.534;6.212;2022-12-11T09:44:54;97459.24;;;2.49;52.42
76660;BME280;65579;45.534;6.212;2022-12-11T09:47:23;97454.07;;;2.21;53.63
76660;BME280;65579;45.534;6.212;2022-12-11T09:49:44;97447.38;;;2.00;53.88
76660;BME280;65579;45.534;6.212;2022-12-11T09:52:13;97444.35;;;1.88;53.94
76660;BME280;65579;45.534;6.212;2022-12-11T09:54:34;97438.86;;;1.78;53.86
76660;BME280;65579;45.534;6.212;2022-12-11T09:57:08;97440.29;;;1.78;54.30
76660;BME280;65579;45.534;6.212;2022-12-11T09:59:27;97437.36;;;1.61;54.15
76660;BME280;65579;45.534;6.212;2022-12-11T10:01:57;97430.67;;;1.78;54.22
76660;BME280;65579;45.534;6.212;2022-12-11T10:04:28;97432.74;;;1.68;54.94
76660;BME280;65579;45.534;6.212;2022-12-11T10:06:49;97430.24;;;2.11;54.94
76660;BME280;65579;45.534;6.212;2022-12-11T10:09:15;97426.94;;;2.33;55.12
76660;BME280;65579;45.534;6.212;2022-12-11T10:11:49;97424.11;;;2.10;54.70
76660;BME280;65579;45.534;6.212;2022-12-11T10:14:04;97418.76;;;1.76;54.63
76660;BME280;65579;45.534;6.212;2022-12-11T10:16:31;97415.59;;;1.71;55.55
76660;BME280;65579;45.534;6.212;2022-12-11T10:18:49;97411.09;;;1.74;55.09
76660;BME280;65579;45.534;6.212;2022-12-11T10:21:15;97407.96;;;2.12;55.52
76660;BME280;65579;45.534;6.212;2022-12-11T10:23:45;97404.25;;;2.07;54.56
76660;BME280;65579;45.534;6.212;2022-12-11T10:26:09;97398.41;;;1.67;55.75
76660;BME280;65579;45.534;6.212;2022-12-11T10:28:31;97397.05;;;1.82;55.50
76660;BME280;65579;45.534;6.212;2022-12-11T10:31:03;97395.70;;;1.76;55.50
76660;BME280;65579;45.534;6.212;2022-12-11T10:33:26;97393.47;;;1.95;54.93
76660;BME280;65579;45.534;6.212;2022-12-11T10:35:49;97393.72;;;2.15;54.07
76660;BME280;65579;45.534;6.212;2022-12-11T10:38:15;97394.91;;;2.11;53.66
76660;BME280;65579;45.534;6.212;2022-12-11T10:40:38;97385.91;;;1.64;54.64
76660;BME280;65579;45.534;6.212;2022-12-11T10:43:03;97382.71;;;1.55;54.41
76660;BME280;65579;45.534;6.212;2022-12-11T10:45:28;97379.37;;;1.69;54.46
76660;BME280;65579;45.534;6.212;2022-12-11T10:48:02;97378.26;;;1.71;52.99
76660;BME280;65579;45.534;6.212;2022-12-11T10:50:22;97374.29;;;2.23;52.93
76660;BME280;65579;45.534;6.212;2022-12-11T10:52:45;97371.77;;;2.06;54.61
76660;BME280;65579;45.534;6.212;2022-12-11T10:55:19;97371.23;;;2.09;53.93
76660;BME280;65579;45.534;6.212;2022-12-11T10:57:37;97371.20;;;2.30;53.69
76660;BME280;65579;45.534;6.212;2022-12-11T11:00:03;97367.65;;;2.37;54.46
76660;BME280;65579;45.534;6.212;2022-12-11T11:02:29;97369.36;;;2.22;55.21
76660;BME280;65579;45.534;6.212;2022-12-11T11:04:52;97370.19;;;2.18;55.08
76660;BME280;65579;45.534;6.212;2022-12-11T11:07:19;97371.42;;;2.05;55.55
76660;BME280;65579;45.534;6.212;2022-12-11T11:09:43;97374.85;;;2.58;54.79
76660;BME280;65579;45.534;6.212;2022-12-11T11:12:19;97378.06;;;2.04;55.13
76660;BME280;65579;45.534;6.212;2022-12-11T11:14:33;97373.85;;;1.98;55.95
76660;BME280;65579;45.534;6.212;2022-12-11T11:17:00;97370.89;;;1.98;56.22
76660;BME280;65579;45.534;6.212;2022-12-11T11:19:28;97369.59;;;1.82;55.75
76660;BME280;65579;45.534;6.212;2022-12-11T11:21:51;97369.54;;;1.64;55.63
76660;BME280;65579;45.534;6.212;2022-12-11T11:24:26;97367.61;;;2.35;55.10
76660;BME280;65579;45.534;6.212;2022-12-11T11:26:41;97364.15;;;2.88;54.13
76660;BME280;65579;45.534;6.212;2022-12-11T11:29:15;97364.51;;;2.69;54.24
76660;BME280;65579;45.534;6.212;2022-12-11T11:31:33;97359.64;;;2.28;54.92
76660;BME280;65579;45.534;6.212;2022-12-11T11:34:00;97360.77;;;1.89;54.47
76660;BME280;65579;45.534;6.212;2022-12-11T11:36:25;97359.42;;;2.00;55.38
76660;BME280;65579;45.534;6.212;2022-12-11T11:41:17;97349.84;;;2.24;55.83
76660;BME280;65579;45.534;6.212;2022-12-11T11:43:44;97346.38;;;2.34;55.46
76660;BME280;65579;45.534;6.212;2022-12-11T11:46:10;97340.12;;;2.22;54.27
76660;BME280;65579;45.534;6.212;2022-12-11T11:48:37;97334.74;;;2.17;55.03
76660;BME280;65579;45.534;6.212;2022-12-11T11:50:57;97333.87;;;2.21;55.14
76660;BME280;65579;45.534;6.212;2022-12-11T11:53:27;97333.58;;;2.42;54.61
76660;BME280;65579;45.534;6.212;2022-12-11T11:55:56;97327.03;;;2.51;53.84
76660;BME280;65579;45.534;6.212;2022-12-11T11:58:15;97325.03;;;2.53;52.94
76660;BME280;65579;45.534;6.212;2022-12-11T12:00:37;97321.65;;;2.56;52.97
76660;BME280;65579;45.534;6.212;2022-12-11T12:03:08;97321.12;;;3.33;60.44
76660;BME280;65579;45.534;6.212;2022-12-11T12:05:34;97316.19;;;2.36;57.59
76660;BME280;65579;45.534;6.212;2022-12-11T12:08:01;97314.65;;;2.32;55.40
76660;BME280;65579;45.534;6.212;2022-12-11T12:10:23;97309.28;;;2.18;55.50
76660;BME280;65579;45.534;6.212;2022-12-11T12:12:50;97307.85;;;1.91;56.17
76660;BME280;65579;45.534;6.212;2022-12-11T12:15:19;97302.97;;;2.15;57.21
76660;BME280;65579;45.534;6.212;2022-12-11T12:17:41;97297.54;;;2.78;55.49
76660;BME280;65579;45.534;6.212;2022-12-11T12:20:08;97295.96;;;2.86;54.82
76660;BME280;65579;45.534;6.212;2022-12-11T12:22:38;97294.55;;;2.85;54.97
76660;BME280;65579;45.534;6.212;2022-12-11T12:24:57;97291.74;;;2.93;54.88
76660;BME280;65579;45.534;6.212;2022-12-11T12:27:19;97284.03;;;2.35;54.82
76660;BME280;65579;45.534;6.212;2022-12-11T12:29:49;97280.27;;;2.62;55.53
76660;BME280;65579;45.534;6.212;2022-12-11T12:32:13;97271.16;;;2.39;54.30
76660;BME280;65579;45.534;6.212;2022-12-11T12:34:44;97265.73;;;2.40;54.31
76660;BME280;65579;45.534;6.212;2022-12-11T12:37:06;97261.84;;;2.92;54.19
76660;BME280;65579;45.534;6.212;2022-12-11T12:39:34;97259.53;;;2.98;53.81
76660;BME280;65579;45.534;6.212;2022-12-11T12:41:55;97256.47;;;2.49;54.61
76660;BME280;65579;45.534;6.212;2022-12-11T12:44:16;97252.61;;;2.52;54.65
76660;BME280;65579;45.534;6.212;2022-12-11T12:46:50;97251.66;;;2.84;54.26
76660;BME280;65579;45.534;6.212;2022-12-11T12:49:11;97249.66;;;3.00;57.31
76660;BME280;65579;45.534;6.212;2022-12-11T12:51:31;97247.11;;;4.39;57.79
76660;BME280;65579;45.534;6.212;2022-12-11T12:53:59;97252.93;;;3.42;54.59
76660;BME280;65579;45.534;6.212;2022-12-11T12:56:22;97252.56;;;3.61;54.62
76660;BME280;65579;45.534;6.212;2022-12-11T12:58:46;97248.86;;;4.43;52.89
76660;BME280;65579;45.534;6.212;2022-12-11T13:01:16;97247.32;;;5.83;55.74
76660;BME280;65579;45.534;6.212;2022-12-11T13:06:05;97245.74;;;5.16;52.96